sensor_id;sensor_type;location;lat;lon;timestamp;pressure;altitude;pressure_sealevel;temperature;humidity
74045;BME280;62389;51.412;5.436;2023-07-02T00:01:02;100633.13;;;16.73;80.02
74045;BME280;62389;51.412;5.436;2023-07-02T00:03:28;100638.16;;;16.76;80.56
74045;BME280;62389;51.412;5.436;2023-07-02T00:05:54;100634.94;;;16.73;79.41
74045;BME280;62389;51.412;5.436;2023-07-02T00:08:21;100626.47;;;16.68;79.33
74045;BME280;62389;51.412;5.436;2023-07-02T00:10:46;100620.34;;;16.67;79.35
74045;BME280;62389;51.412;5.436;2023-07-02T00:13:12;100623.06;;;16.66;80.02
74045;BME280;62389;51.412;5.436;2023-07-02T00:15:37;100625.84;;;16.64;79.50
74045;BME280;62389;51.412;5.436;2023-07-02T00:18:02;100630.41;;;16.62;79.25
74045;BME280;62389;51.412;5.436;2023-07-02T00:20:28;100625.00;;;16.64;79.84
74045;BME280;62389;51.412;5.436;2023-07-02T00:22:55;100616.13;;;16.65;79.15
74045;BME280;62389;51.412;5.436;2023-07-02T00:25:21;100622.34;;;16.64;79.25
74045;BME280;62389;51.412;5.436;2023-07-02T00:27:46;100625.00;;;16.64;79.06
74045;BME280;62389;51.412;5.436;2023-07-02T00:30:12;100623.06;;;16.66;79.47
74045;BME280;62389;51.412;5.436;2023-07-02T00:32:38;100627.53;;;16.65;78.93
74045;BME280;62389;51.412;5.436;2023-07-02T00:35:03;100624.88;;;16.65;79.21
74045;BME280;62389;51.412;5.436;2023-07-02T00:37:29;100629.44;;;16.63;78.88
74045;BME280;62389;51.412;5.436;2023-07-02T00:39:54;100638.66;;;16.57;78.93
74045;BME280;62389;51.412;5.436;2023-07-02T00:42:20;100629.97;;;16.55;79.30
74045;BME280;62389;51.412;5.436;2023-07-02T00:44:45;100629.78;;;16.58;79.24
74045;BME280;62389;51.412;5.436;2023-07-02T00:47:11;100631.56;;;16.58;78.92
74045;BME280;62389;51.412;5.436;2023-07-02T00:49:37;100626.38;;;16.56;79.66
74045;BME280;62389;51.412;5.436;2023-07-02T00:52:03;100622.69;;;16.59;78.97
74045;BME280;62389;51.412;5.436;2023-07-02T00:54:29;100622.06;;;16.55;79.35
74045;BME280;62389;51.412;5.436;2023-07-02T00:56:54;100637.19;;;16.53;79.19
74045;BME280;62389;51.412;5.436;2023-07-02T00:59:20;100629.47;;;16.50;79.13
74045;BME280;62389;51.412;5.436;2023-07-02T01:01:45;100635.19;;;16.44;78.98
74045;BME280;62389;51.412;5.436;2023-07-02T01:04:17;100629.06;;;16.44;79.34
74045;BME280;62389;51.412;5.436;2023-07-02T01:06:43;100636.16;;;16.43;79.12
74045;BME280;62389;51.412;5.436;2023-07-02T01:09:09;100637.94;;;16.43;79.55
74045;BME280;62389;51.412;5.436;2023-07-02T01:11:45;100641.75;;;16.39;78.72
74045;BME280;62389;51.412;5.436;2023-07-02T01:14:15;100646.19;;;16.38;79.16
74045;BME280;62389;51.412;5.436;2023-07-02T01:16:43;100648.94;;;16.37;79.39
74045;BME280;62389;51.412;5.436;2023-07-02T01:19:13;100647.16;;;16.37;78.89
74045;BME280;62389;51.412;5.436;2023-07-02T01:21:44;100640.28;;;16.35;79.33
74045;BME280;62389;51.412;5.436;2023-07-02T01:24:10;100642.81;;;16.36;79.79
74045;BME280;62389;51.412;5.436;2023-07-02T01:26:36;100651.16;;;16.30;79.39
74045;BME280;62389;51.412;5.436;2023-07-02T01:31:39;100656.56;;;16.28;79.64
74045;BME280;62389;51.412;5.436;2023-07-02T01:34:05;100656.66;;;16.27;79.81
74045;BME280;62389;51.412;5.436;2023-07-02T01:36:32;100650.63;;;16.25;79.79
74045;BME280;62389;51.412;5.436;2023-07-02T01:38:58;100652.31;;;16.26;79.88
74045;BME280;62389;51.412;5.436;2023-07-02T01:41:24;100654.88;;;16.27;80.08
74045;BME280;62389;51.412;5.436;2023-07-02T01:43:49;100660.25;;;16.26;79.65
74045;BME280;62389;51.412;5.436;2023-07-02T01:46:14;100658.66;;;16.23;79.76
74045;BME280;62389;51.412;5.436;2023-07-02T01:48:40;100650.88;;;16.22;80.36
74045;BME280;62389;51.412;5.436;2023-07-02T01:51:05;100661.19;;;16.25;80.41
74045;BME280;62389;51.412;5.436;2023-07-02T01:53:30;100661.44;;;16.22;80.03
74045;BME280;62389;51.412;5.436;2023-07-02T01:55:56;100661.31;;;16.23;80.38
74045;BME280;62389;51.412;5.436;2023-07-02T01:58:21;100656.75;;;16.25;80.60
74045;BME280;62389;51.412;5.436;2023-07-02T02:00:47;100666.47;;;16.25;79.98
74045;BME280;62389;51.412;5.436;2023-07-02T02:03:13;100661.31;;;16.23;80.72
74045;BME280;62389;51.412;5.436;2023-07-02T02:05:38;100667.63;;;16.21;80.32
74045;BME280;62389;51.412;5.436;2023-07-02T02:08:03;100665.22;;;16.18;80.41
74045;BME280;62389;51.412;5.436;2023-07-02T02:10:29;100659.94;;;16.18;80.72
74045;BME280;62389;51.412;5.436;2023-07-02T02:12:54;100670.50;;;16.18;80.64
74045;BME280;62389;51.412;5.436;2023-07-02T02:15:20;100661.63;;;16.19;80.56
74045;BME280;62389;51.412;5.436;2023-07-02T02:17:45;100668.72;;;16.18;81.16
74045;BME280;62389;51.412;5.436;2023-07-02T02:20:11;100674.41;;;16.12;80.82
74045;BME280;62389;51.412;5.436;2023-07-02T02:22:36;100673.56;;;16.12;81.44
74045;BME280;62389;51.412;5.436;2023-07-02T02:25:02;100665.66;;;16.12;81.31
74045;BME280;62389;51.412;5.436;2023-07-02T02:27:28;100669.97;;;16.13;81.63
74045;BME280;62389;51.412;5.436;2023-07-02T02:29:54;100665.44;;;16.15;81.69
74045;BME280;62389;51.412;5.436;2023-07-02T02:32:19;100659.31;;;16.14;81.59
74045;BME280;62389;51.412;5.436;2023-07-02T02:34:46;100663.03;;;16.12;81.68
74045;BME280;62389;51.412;5.436;2023-07-02T02:37:12;100675.56;;;16.08;81.50
74045;BME280;62389;51.412;5.436;2023-07-02T02:39:37;100676.72;;;16.04;81.70
74045;BME280;62389;51.412;5.436;2023-07-02T02:42:03;100677.81;;;16.01;81.91
74045;BME280;62389;51.412;5.436;2023-07-02T02:44:28;100681.28;;;16.02;81.90
74045;BME280;62389;51.412;5.436;2023-07-02T02:46:54;100669.13;;;15.99;82.21
74045;BME280;62389;51.412;5.436;2023-07-02T02:49:20;100677.69;;;16.03;82.52
74045;BME280;62389;51.412;5.436;2023-07-02T02:51:45;100686.31;;;16.05;82.20
74045;BME280;62389;51.412;5.436;2023-07-02T02:54:10;100682.13;;;16.02;82.04
74045;BME280;62389;51.412;5.436;2023-07-02T02:56:36;100692.97;;;15.98;82.40
74045;BME280;62389;51.412;5.436;2023-07-02T02:59:01;100692.22;;;15.96;82.19
74045;BME280;62389;51.412;5.436;2023-07-02T03:01:27;100693.28;;;15.93;82.74
74045;BME280;62389;51.412;5.436;2023-07-02T03:03:57;100696.06;;;15.92;82.77
74045;BME280;62389;51.412;5.436;2023-07-02T03:06:23;100702.38;;;15.89;82.52
74045;BME280;62389;51.412;5.436;2023-07-02T03:08:48;100705.13;;;15.88;82.67
74045;BME280;62389;51.412;5.436;2023-07-02T03:11:13;100709.75;;;15.84;83.04
74045;BME280;62389;51.412;5.436;2023-07-02T03:13:39;100711.84;;;15.79;83.03
74045;BME280;62389;51.412;5.436;2023-07-02T03:16:05;100721.13;;;15.72;83.09
74045;BME280;62389;51.412;5.436;2023-07-02T03:18:30;100722.16;;;15.69;83.09
74045;BME280;62389;51.412;5.436;2023-07-02T03:20:55;100719.84;;;15.65;83.55
74045;BME280;62389;51.412;5.436;2023-07-02T03:23:21;100719.06;;;15.63;83.28
74045;BME280;62389;51.412;5.436;2023-07-02T03:25:46;100721.78;;;15.61;83.47
74045;BME280;62389;51.412;5.436;2023-07-02T03:28:12;100720.09;;;15.60;83.70
74045;BME280;62389;51.412;5.436;2023-07-02T03:30:37;100719.47;;;15.57;83.76
74045;BME280;62389;51.412;5.436;2023-07-02T03:33:03;100727.59;;;15.53;83.89
74045;BME280;62389;51.412;5.436;2023-07-02T03:35:28;100732.84;;;15.53;84.07
74045;BME280;62389;51.412;5.436;2023-07-02T03:37:54;100733.69;;;15.54;83.58
74045;BME280;62389;51.412;5.436;2023-07-02T03:40:19;100738.97;;;15.54;83.57
74045;BME280;62389;51.412;5.436;2023-07-02T03:42:45;100738.00;;;15.55;82.96
74045;BME280;62389;51.412;5.436;2023-07-02T03:45:10;100739.63;;;15.58;83.00
74045;BME280;62389;51.412;5.436;2023-07-02T03:47:35;100739.81;;;15.54;82.03
74045;BME280;62389;51.412;5.436;2023-07-02T03:50:01;100737.59;;;15.48;82.19
74045;BME280;62389;51.412;5.436;2023-07-02T03:52:26;100748.84;;;15.50;82.17
74045;BME280;62389;51.412;5.436;2023-07-02T03:54:52;100742.66;;;15.51;82.50
74045;BME280;62389;51.412;5.436;2023-07-02T03:57:17;100750.34;;;15.54;82.32
74045;BME280;62389;51.412;5.436;2023-07-02T03:59:43;100743.41;;;15.53;81.24
74045;BME280;62389;51.412;5.436;2023-07-02T04:02:08;100754.34;;;15.47;81.14
74045;BME280;62389;51.412;5.436;2023-07-02T04:04:33;100760.75;;;15.43;81.45
74045;BME280;62389;51.412;5.436;2023-07-02T04:06:59;100762.84;;;15.38;81.52
74045;BME280;62389;51.412;5.436;2023-07-02T04:09:24;100755.91;;;15.37;82.31
74045;BME280;62389;51.412;5.436;2023-07-02T04:11:49;100761.16;;;15.37;82.12
74045;BME280;62389;51.412;5.436;2023-07-02T04:14:15;100766.34;;;15.39;82.46
74045;BME280;62389;51.412;5.436;2023-07-02T04:16:42;100761.91;;;15.39;82.46
74045;BME280;62389;51.412;5.436;2023-07-02T04:19:09;100763.59;;;15.40;82.45
74045;BME280;62389;51.412;5.436;2023-07-02T04:21:34;100765.31;;;15.41;83.23
74045;BME280;62389;51.412;5.436;2023-07-02T04:24:00;100766.03;;;15.43;83.22
74045;BME280;62389;51.412;5.436;2023-07-02T04:26:25;100771.41;;;15.42;83.10
74045;BME280;62389;51.412;5.436;2023-07-02T04:28:52;100778.56;;;15.40;82.53
74045;BME280;62389;51.412;5.436;2023-07-02T04:31:18;100775.72;;;15.43;82.72
74045;BME280;62389;51.412;5.436;2023-07-02T04:33:44;100773.75;;;15.46;82.25
74045;BME280;62389;51.412;5.436;2023-07-02T04:36:09;100772.03;;;15.45;82.01
74045;BME280;62389;51.412;5.436;2023-07-02T04:38:35;100779.22;;;15.43;81.92
74045;BME280;62389;51.412;5.436;2023-07-02T04:41:00;100779.31;;;15.42;81.81
74045;BME280;62389;51.412;5.436;2023-07-02T04:43:31;100778.47;;;15.41;81.30
74045;BME280;62389;51.412;5.436;2023-07-02T04:45:57;100778.38;;;15.43;80.90
74045;BME280;62389;51.412;5.436;2023-07-02T04:48:22;100785.50;;;15.41;80.12
74045;BME280;62389;51.412;5.436;2023-07-02T04:50:47;100781.13;;;15.41;80.36
74045;BME280;62389;51.412;5.436;2023-07-02T04:53:13;100779.88;;;15.47;80.66
74045;BME280;62389;51.412;5.436;2023-07-02T04:55:38;100786.81;;;15.48;78.81
74045;BME280;62389;51.412;5.436;2023-07-02T04:58:03;100784.91;;;15.50;77.91
74045;BME280;62389;51.412;5.436;2023-07-02T05:00:29;100789.34;;;15.49;77.71
74045;BME280;62389;51.412;5.436;2023-07-02T05:02:54;100788.63;;;15.47;77.46
74045;BME280;62389;51.412;5.436;2023-07-02T05:05:19;100801.78;;;15.47;76.39
74045;BME280;62389;51.412;5.436;2023-07-02T05:07:45;100798.22;;;15.48;75.95
74045;BME280;62389;51.412;5.436;2023-07-02T05:10:10;100790.84;;;15.53;75.17
74045;BME280;62389;51.412;5.436;2023-07-02T05:12:35;100803.72;;;15.58;75.14
74045;BME280;62389;51.412;5.436;2023-07-02T05:15:01;100802.66;;;15.61;73.74
74045;BME280;62389;51.412;5.436;2023-07-02T05:17:26;100811.53;;;15.60;72.17
74045;BME280;62389;51.412;5.436;2023-07-02T05:19:52;100809.84;;;15.59;72.78
74045;BME280;62389;51.412;5.436;2023-07-02T05:22:17;100812.22;;;15.63;73.12
74045;BME280;62389;51.412;5.436;2023-07-02T05:24:43;100817.94;;;15.70;73.79
74045;BME280;62389;51.412;5.436;2023-07-02T05:27:09;100821.22;;;15.73;72.77
74045;BME280;62389;51.412;5.436;2023-07-02T05:29:34;100820.81;;;15.79;71.17
74045;BME280;62389;51.412;5.436;2023-07-02T05:32:00;100828.31;;;15.86;71.35
74045;BME280;62389;51.412;5.436;2023-07-02T05:34:25;100828.78;;;15.92;71.43
74045;BME280;62389;51.412;5.436;2023-07-02T05:36:51;100832.16;;;15.94;69.16
74045;BME280;62389;51.412;5.436;2023-07-02T05:39:16;100828.66;;;15.94;69.99
74045;BME280;62389;51.412;5.436;2023-07-02T05:41:41;100827.72;;;15.95;71.47
74045;BME280;62389;51.412;5.436;2023-07-02T05:44:07;100831.72;;;16.00;71.44
74045;BME280;62389;51.412;5.436;2023-07-02T05:46:32;100835.88;;;16.04;70.33
74045;BME280;62389;51.412;5.436;2023-07-02T05:48:57;100836.41;;;16.10;70.79
74045;BME280;62389;51.412;5.436;2023-07-02T05:51:25;100841.25;;;16.16;71.30
74045;BME280;62389;51.412;5.436;2023-07-02T05:53:51;100837.47;;;16.20;71.62
74045;BME280;62389;51.412;5.436;2023-07-02T05:56:17;100833.88;;;16.21;70.13
74045;BME280;62389;51.412;5.436;2023-07-02T05:58:43;100844.25;;;16.24;70.24
74045;BME280;62389;51.412;5.436;2023-07-02T06:01:08;100842.97;;;16.29;70.72
74045;BME280;62389;51.412;5.436;2023-07-02T06:03:33;100853.34;;;16.33;70.63
74045;BME280;62389;51.412;5.436;2023-07-02T06:05:59;100846.56;;;16.28;69.63
74045;BME280;62389;51.412;5.436;2023-07-02T06:08:25;100844.97;;;16.26;68.37
74045;BME280;62389;51.412;5.436;2023-07-02T06:10:50;100855.53;;;16.26;68.21
74045;BME280;62389;51.412;5.436;2023-07-02T06:13:16;100864.22;;;16.28;67.86
74045;BME280;62389;51.412;5.436;2023-07-02T06:15:42;100859.66;;;16.30;68.46
74045;BME280;62389;51.412;5.436;2023-07-02T06:18:08;100857.97;;;16.29;66.90
74045;BME280;62389;51.412;5.436;2023-07-02T06:20:33;100867.28;;;16.35;67.12
74045;BME280;62389;51.412;5.436;2023-07-02T06:22:59;100857.38;;;16.38;66.19
74045;BME280;62389;51.412;5.436;2023-07-02T06:25:24;100857.91;;;16.43;65.52
74045;BME280;62389;51.412;5.436;2023-07-02T06:27:50;100861.91;;;16.49;65.73
74045;BME280;62389;51.412;5.436;2023-07-02T06:30:15;100863.47;;;16.51;63.56
74045;BME280;62389;51.412;5.436;2023-07-02T06:32:40;100867.59;;;16.55;63.17
74045;BME280;62389;51.412;5.436;2023-07-02T06:35:06;100869.81;;;16.62;64.52
74045;BME280;62389;51.412;5.436;2023-07-02T06:37:32;100872.78;;;16.70;64.34
74045;BME280;62389;51.412;5.436;2023-07-02T06:39:58;100869.69;;;16.77;63.30
74045;BME280;62389;51.412;5.436;2023-07-02T06:42:24;100879.69;;;16.85;63.12
74045;BME280;62389;51.412;5.436;2023-07-02T06:44:49;100870.72;;;16.88;62.48
74045;BME280;62389;51.412;5.436;2023-07-02T06:47:15;100879.25;;;16.91;62.49
74045;BME280;62389;51.412;5.436;2023-07-02T06:49:40;100881.50;;;16.97;62.24
74045;BME280;62389;51.412;5.436;2023-07-02T06:52:06;100882.03;;;17.02;62.16
74045;BME280;62389;51.412;5.436;2023-07-02T06:54:31;100886.13;;;17.06;62.55
74045;BME280;62389;51.412;5.436;2023-07-02T06:56:56;100891.00;;;17.13;62.40
74045;BME280;62389;51.412;5.436;2023-07-02T06:59:22;100890.16;;;17.12;62.52
74045;BME280;62389;51.412;5.436;2023-07-02T07:01:49;100897.72;;;17.17;62.68
74045;BME280;62389;51.412;5.436;2023-07-02T07:04:14;100905.47;;;17.20;62.48
74045;BME280;62389;51.412;5.436;2023-07-02T07:06:40;100901.97;;;17.19;62.29
74045;BME280;62389;51.412;5.436;2023-07-02T07:09:05;100910.09;;;17.16;62.04
74045;BME280;62389;51.412;5.436;2023-07-02T07:11:30;100907.91;;;17.10;62.81
74045;BME280;62389;51.412;5.436;2023-07-02T07:13:56;100905.78;;;17.15;63.79
74045;BME280;62389;51.412;5.436;2023-07-02T07:16:21;100907.91;;;17.23;62.01
74045;BME280;62389;51.412;5.436;2023-07-02T07:18:47;100910.03;;;17.18;61.83
74045;BME280;62389;51.412;5.436;2023-07-02T07:21:13;100907.38;;;17.18;61.67
74045;BME280;62389;51.412;5.436;2023-07-02T07:23:39;100915.59;;;17.26;63.23
74045;BME280;62389;51.412;5.436;2023-07-02T07:26:04;100922.03;;;17.34;63.29
74045;BME280;62389;51.412;5.436;2023-07-02T07:28:30;100918.13;;;17.40;60.84
74045;BME280;62389;51.412;5.436;2023-07-02T07:30:55;100926.81;;;17.42;60.95
74045;BME280;62389;51.412;5.436;2023-07-02T07:33:21;100924.16;;;17.42;60.18
74045;BME280;62389;51.412;5.436;2023-07-02T07:35:46;100924.03;;;17.44;59.90
74045;BME280;62389;51.412;5.436;2023-07-02T07:38:13;100932.59;;;17.47;58.18
74045;BME280;62389;51.412;5.436;2023-07-02T07:40:39;100939.66;;;17.47;57.92
74045;BME280;62389;51.412;5.436;2023-07-02T07:43:05;100942.31;;;17.47;59.10
74045;BME280;62389;51.412;5.436;2023-07-02T07:45:30;100935.97;;;17.49;58.66
74045;BME280;62389;51.412;5.436;2023-07-02T07:47:56;100941.06;;;17.52;58.23
74045;BME280;62389;51.412;5.436;2023-07-02T07:50:21;100943.34;;;17.57;59.89
74045;BME280;62389;51.412;5.436;2023-07-02T07:52:47;100935.09;;;17.61;58.10
74045;BME280;62389;51.412;5.436;2023-07-02T07:55:13;100928.63;;;17.66;57.83
74045;BME280;62389;51.412;5.436;2023-07-02T07:57:38;100940.50;;;17.73;57.75
74045;BME280;62389;51.412;5.436;2023-07-02T08:00:04;100932.13;;;17.79;57.58
74045;BME280;62389;51.412;5.436;2023-07-02T08:02:33;100936.34;;;17.81;58.38
74045;BME280;62389;51.412;5.436;2023-07-02T08:04:58;100938.44;;;17.89;58.20
74045;BME280;62389;51.412;5.436;2023-07-02T08:07:23;100945.78;;;17.97;59.26
74045;BME280;62389;51.412;5.436;2023-07-02T08:09:49;100941.75;;;18.04;58.02
74045;BME280;62389;51.412;5.436;2023-07-02T08:12:14;100942.41;;;18.07;57.25
74045;BME280;62389;51.412;5.436;2023-07-02T08:14:39;100945.31;;;18.16;56.93
74045;BME280;62389;51.412;5.436;2023-07-02T08:17:05;100950.03;;;18.23;56.75
74045;BME280;62389;51.412;5.436;2023-07-02T08:19:31;100955.72;;;18.30;57.54
74045;BME280;62389;51.412;5.436;2023-07-02T08:21:56;100950.81;;;18.36;57.23
74045;BME280;62389;51.412;5.436;2023-07-02T08:24:21;100951.31;;;18.42;58.48
74045;BME280;62389;51.412;5.436;2023-07-02T08:26:47;100961.56;;;18.46;56.20
74045;BME280;62389;51.412;5.436;2023-07-02T08:29:14;100964.72;;;18.51;55.35
74045;BME280;62389;51.412;5.436;2023-07-02T08:31:40;100967.75;;;18.58;55.36
74045;BME280;62389;51.412;5.436;2023-07-02T08:34:06;100965.03;;;18.71;55.76
74045;BME280;62389;51.412;5.436;2023-07-02T08:36:32;100963.84;;;18.75;55.69
74045;BME280;62389;51.412;5.436;2023-07-02T08:38:57;100967.00;;;18.80;56.19
74045;BME280;62389;51.412;5.436;2023-07-02T08:41:23;100958.91;;;18.70;54.33
74045;BME280;62389;51.412;5.436;2023-07-02T08:43:50;100965.22;;;18.56;54.76
74045;BME280;62389;51.412;5.436;2023-07-02T08:46:17;100973.59;;;18.39;52.71
74045;BME280;62389;51.412;5.436;2023-07-02T08:48:43;100980.78;;;18.37;53.40
74045;BME280;62389;51.412;5.436;2023-07-02T08:51:08;100975.84;;;18.32;51.15
74045;BME280;62389;51.412;5.436;2023-07-02T08:53:34;100978.38;;;18.34;52.42
74045;BME280;62389;51.412;5.436;2023-07-02T08:56:00;100980.09;;;18.46;53.13
74045;BME280;62389;51.412;5.436;2023-07-02T08:58:26;100985.44;;;18.57;52.67
74045;BME280;62389;51.412;5.436;2023-07-02T09:01:12;100984.03;;;18.64;54.43
74045;BME280;62389;51.412;5.436;2023-07-02T09:03:39;100976.47;;;18.71;53.96
74045;BME280;62389;51.412;5.436;2023-07-02T09:06:08;100977.22;;;18.73;54.33
74045;BME280;62389;51.412;5.436;2023-07-02T09:08:35;100973.00;;;18.71;53.70
74045;BME280;62389;51.412;5.436;2023-07-02T09:11:14;100976.59;;;18.70;54.13
74045;BME280;62389;51.412;5.436;2023-07-02T09:13:48;100971.97;;;18.60;55.47
74045;BME280;62389;51.412;5.436;2023-07-02T09:16:40;100981.91;;;18.70;56.08
74045;BME280;62389;51.412;5.436;2023-07-02T09:19:08;100976.88;;;18.78;52.41
74045;BME280;62389;51.412;5.436;2023-07-02T09:21:48;100972.66;;;18.86;52.93
74045;BME280;62389;51.412;5.436;2023-07-02T09:24:14;100977.88;;;18.88;51.41
74045;BME280;62389;51.412;5.436;2023-07-02T09:26:47;100985.81;;;18.88;50.65
74045;BME280;62389;51.412;5.436;2023-07-02T09:29:37;100980.88;;;18.83;51.55
74045;BME280;62389;51.412;5.436;2023-07-02T09:32:04;100986.19;;;18.83;51.51
74045;BME280;62389;51.412;5.436;2023-07-02T09:34:34;100971.69;;;18.76;51.59
74045;BME280;62389;51.412;5.436;2023-07-02T09:37:00;100972.66;;;18.75;53.82
74045;BME280;62389;51.412;5.436;2023-07-02T09:39:31;100970.91;;;19.21;51.19
74045;BME280;62389;51.412;5.436;2023-07-02T09:41:59;100975.16;;;19.34;48.42
74045;BME280;62389;51.412;5.436;2023-07-02T09:44:28;100968.75;;;19.26;48.88
74045;BME280;62389;51.412;5.436;2023-07-02T09:49:32;100970.78;;;18.88;49.45
74045;BME280;62389;51.412;5.436;2023-07-02T09:52:03;100982.53;;;18.73;49.95
74045;BME280;62389;51.412;5.436;2023-07-02T09:54:29;100983.66;;;18.58;50.67
74045;BME280;62389;51.412;5.436;2023-07-02T09:56:55;100986.41;;;18.56;50.78
74045;BME280;62389;51.412;5.436;2023-07-02T09:59:21;100987.06;;;18.47;50.67
74045;BME280;62389;51.412;5.436;2023-07-02T10:01:46;100987.44;;;18.43;49.83
74045;BME280;62389;51.412;5.436;2023-07-02T10:04:16;100982.50;;;18.38;49.52
74045;BME280;62389;51.412;5.436;2023-07-02T10:06:51;101002.72;;;18.39;50.87
74045;BME280;62389;51.412;5.436;2023-07-02T10:09:17;100999.59;;;18.45;50.23
74045;BME280;62389;51.412;5.436;2023-07-02T10:11:43;101011.00;;;18.58;50.69
74045;BME280;62389;51.412;5.436;2023-07-02T10:14:09;101010.09;;;18.71;50.19
74045;BME280;62389;51.412;5.436;2023-07-02T10:16:34;101008.44;;;18.81;49.79
74045;BME280;62389;51.412;5.436;2023-07-02T10:19:13;101009.69;;;18.88;49.22
74045;BME280;62389;51.412;5.436;2023-07-02T10:21:38;101011.56;;;18.75;48.52
74045;BME280;62389;51.412;5.436;2023-07-02T10:24:13;101009.13;;;18.72;49.36
74045;BME280;62389;51.412;5.436;2023-07-02T10:26:51;101012.97;;;18.68;49.29
74045;BME280;62389;51.412;5.436;2023-07-02T10:29:20;101021.53;;;18.71;49.15
74045;BME280;62389;51.412;5.436;2023-07-02T10:31:50;101011.06;;;18.70;49.67
74045;BME280;62389;51.412;5.436;2023-07-02T10:34:16;101025.03;;;18.72;49.73
74045;BME280;62389;51.412;5.436;2023-07-02T10:36:41;101024.31;;;18.70;49.22
74045;BME280;62389;51.412;5.436;2023-07-02T10:39:07;101020.13;;;18.54;50.12
74045;BME280;62389;51.412;5.436;2023-07-02T10:41:33;101024.41;;;18.44;49.82
74045;BME280;62389;51.412;5.436;2023-07-02T10:44:08;101015.94;;;18.39;50.96
74045;BME280;62389;51.412;5.436;2023-07-02T10:46:34;101019.31;;;18.41;51.60
74045;BME280;62389;51.412;5.436;2023-07-02T10:49:00;101028.63;;;18.47;51.62
74045;BME280;62389;51.412;5.436;2023-07-02T10:51:25;101024.78;;;18.51;51.21
74045;BME280;62389;51.412;5.436;2023-07-02T10:54:00;101020.13;;;18.54;52.95
74045;BME280;62389;51.412;5.436;2023-07-02T10:56:29;101023.28;;;18.59;53.12
74045;BME280;62389;51.412;5.436;2023-07-02T10:58:54;101009.75;;;18.75;52.62
74045;BME280;62389;51.412;5.436;2023-07-02T11:01:30;101016.22;;;19.18;51.99
74045;BME280;62389;51.412;5.436;2023-07-02T11:04:00;101010.59;;;19.45;51.05
74045;BME280;62389;51.412;5.436;2023-07-02T11:06:30;100999.44;;;19.63;50.94
74045;BME280;62389;51.412;5.436;2023-07-02T11:08:57;101009.53;;;19.81;50.84
74045;BME280;62389;51.412;5.436;2023-07-02T11:11:23;101009.78;;;19.89;50.04
74045;BME280;62389;51.412;5.436;2023-07-02T11:13:50;100999.38;;;19.97;49.00
74045;BME280;62389;51.412;5.436;2023-07-02T11:16:22;101010.72;;;19.88;47.98
74045;BME280;62389;51.412;5.436;2023-07-02T11:18:51;101016.28;;;19.96;49.95
74045;BME280;62389;51.412;5.436;2023-07-02T11:21:17;101012.03;;;20.05;49.37
74045;BME280;62389;51.412;5.436;2023-07-02T11:23:42;101014.91;;;20.24;50.83
74045;BME280;62389;51.412;5.436;2023-07-02T11:26:08;101002.63;;;20.44;48.42
74045;BME280;62389;51.412;5.436;2023-07-02T11:28:33;101001.47;;;20.69;49.81
74045;BME280;62389;51.412;5.436;2023-07-02T11:31:01;101010.38;;;20.79;47.71
74045;BME280;62389;51.412;5.436;2023-07-02T11:33:39;101006.41;;;20.74;49.00
74045;BME280;62389;51.412;5.436;2023-07-02T11:36:19;101010.81;;;20.63;48.78
74045;BME280;62389;51.412;5.436;2023-07-02T11:38:45;101010.59;;;20.44;46.79
74045;BME280;62389;51.412;5.436;2023-07-02T11:41:10;101014.75;;;20.26;48.39
74045;BME280;62389;51.412;5.436;2023-07-02T11:43:36;101007.81;;;20.13;48.16
74045;BME280;62389;51.412;5.436;2023-07-02T11:46:02;101008.06;;;19.99;47.70
74045;BME280;62389;51.412;5.436;2023-07-02T11:48:28;101006.94;;;20.13;49.30
74045;BME280;62389;51.412;5.436;2023-07-02T11:50:53;101018.44;;;20.46;50.81
74045;BME280;62389;51.412;5.436;2023-07-02T11:53:18;101002.94;;;20.62;48.09
74045;BME280;62389;51.412;5.436;2023-07-02T11:55:44;101005.03;;;20.58;48.81
74045;BME280;62389;51.412;5.436;2023-07-02T11:58:09;101005.22;;;20.34;49.32
74045;BME280;62389;51.412;5.436;2023-07-02T12:00:34;101008.25;;;20.30;50.32
74045;BME280;62389;51.412;5.436;2023-07-02T12:03:00;101005.97;;;20.25;50.56
74045;BME280;62389;51.412;5.436;2023-07-02T12:05:25;101013.13;;;20.13;50.05
74045;BME280;62389;51.412;5.436;2023-07-02T12:07:51;101001.06;;;20.09;52.66
74045;BME280;62389;51.412;5.436;2023-07-02T12:10:17;101010.22;;;20.05;51.42
74045;BME280;62389;51.412;5.436;2023-07-02T12:12:42;101011.31;;;20.03;50.12
74045;BME280;62389;51.412;5.436;2023-07-02T12:15:08;101013.84;;;20.04;47.08
74045;BME280;62389;51.412;5.436;2023-07-02T12:17:33;101020.63;;;20.08;45.45
74045;BME280;62389;51.412;5.436;2023-07-02T12:19:59;101022.88;;;20.13;45.36
74045;BME280;62389;51.412;5.436;2023-07-02T12:22:24;101022.72;;;20.26;44.84
74045;BME280;62389;51.412;5.436;2023-07-02T12:24:49;101023.28;;;20.40;46.18
74045;BME280;62389;51.412;5.436;2023-07-02T12:27:15;101013.03;;;20.47;44.99
74045;BME280;62389;51.412;5.436;2023-07-02T12:29:41;101009.19;;;20.72;45.97
74045;BME280;62389;51.412;5.436;2023-07-02T12:32:06;101007.63;;;20.90;44.57
74045;BME280;62389;51.412;5.436;2023-07-02T12:34:32;101012.03;;;21.01;46.37
74045;BME280;62389;51.412;5.436;2023-07-02T12:36:57;101003.00;;;21.13;44.20
74045;BME280;62389;51.412;5.436;2023-07-02T12:39:23;101022.56;;;21.24;44.29
74045;BME280;62389;51.412;5.436;2023-07-02T12:41:48;101002.81;;;21.26;45.49
74045;BME280;62389;51.412;5.436;2023-07-02T12:44:13;101014.25;;;21.17;43.97
74045;BME280;62389;51.412;5.436;2023-07-02T12:46:39;101007.44;;;21.03;43.27
74045;BME280;62389;51.412;5.436;2023-07-02T12:49:04;101005.88;;;21.21;45.38
74045;BME280;62389;51.412;5.436;2023-07-02T12:51:30;101018.88;;;21.36;42.42